Time;durP1;ratioP1;P1;durP2;ratioP2;P2;SDS_P1;SDS_P2;PMS_P1;PMS_P2;Temp;Humidity;BMP_temperature;BMP_pressure;BME280_temperature;BME280_humidity;BME280_pressure;Samples;Min_cycle;Max_cycle;Signal;HPM_P1;HPM_P2
2021/08/19 00:01:21;;;;;;;12.90;12.30;;;23.70;98.60;;;;;;2602547;54;20387;-60
2021/08/19 00:03:50;;;;;;;12.20;11.73;;;23.70;98.60;;;;;;2602878;54;20858;-59
2021/08/19 00:06:19;;;;;;;12.60;12.10;;;23.70;98.50;;;;;;2602694;54;20739;-61
2021/08/19 00:08:50;;;;;;;12.90;12.40;;;23.70;98.50;;;;;;2602456;47;20522;-60
2021/08/19 00:11:19;;;;;;;12.60;12.10;;;23.70;98.50;;;;;;2601116;47;20402;-61
2021/08/19 00:13:51;;;;;;;12.70;12.20;;;23.70;98.50;;;;;;2602800;39;20730;-59
2021/08/19 00:16:20;;;;;;;13.53;12.93;;;23.70;98.50;;;;;;2603134;54;20418;-59
2021/08/19 00:18:49;;;;;;;12.10;11.60;;;23.70;98.50;;;;;;2601785;54;20407;-60
2021/08/19 00:21:18;;;;;;;12.50;12.00;;;23.70;98.50;;;;;;2603553;39;20613;-60
2021/08/19 00:23:47;;;;;;;12.83;12.33;;;23.70;98.50;;;;;;2601114;54;20451;-61
2021/08/19 00:26:17;;;;;;;11.83;11.43;;;23.70;98.50;;;;;;2602550;54;20777;-61
2021/08/19 00:28:46;;;;;;;11.93;11.50;;;23.70;98.50;;;;;;2602798;54;20395;-61
2021/08/19 00:31:19;;;;;;;12.40;11.90;;;23.70;98.50;;;;;;2602973;54;20510;-61
2021/08/19 00:33:48;;;;;;;12.20;11.73;;;23.70;98.50;;;;;;2601997;54;20393;-61
2021/08/19 00:36:17;;;;;;;12.30;11.80;;;23.70;98.50;;;;;;2599661;39;20910;-60
2021/08/19 00:38:48;;;;;;;13.00;12.50;;;23.70;98.40;;;;;;2600396;54;20434;-61
2021/08/19 00:41:17;;;;;;;12.60;12.20;;;23.70;98.50;;;;;;2602078;54;21039;-61
2021/08/19 00:43:49;;;;;;;13.37;12.50;;;23.70;98.40;;;;;;2602685;54;20750;-59
2021/08/19 00:46:32;;;;;;;12.77;12.20;;;23.70;98.40;;;;;;2602687;54;20399;-61
2021/08/19 00:49:02;;;;;;;12.83;12.33;;;23.70;98.60;;;;;;2602483;54;20513;-60
2021/08/19 00:51:34;;;;;;;13.17;12.47;;;23.70;98.40;;;;;;2602195;51;20874;-61
2021/08/19 00:54:05;;;;;;;12.87;12.37;;;23.70;98.40;;;;;;2600774;54;20417;-60
2021/08/19 00:56:35;;;;;;;13.30;12.70;;;23.70;98.40;;;;;;2601712;54;20974;-61
2021/08/19 00:59:05;;;;;;;13.50;12.83;;;23.70;98.40;;;;;;2600719;39;20709;-60
2021/08/19 01:01:37;;;;;;;12.67;12.17;;;23.70;98.40;;;;;;2601787;47;20591;-61
2021/08/19 01:04:14;;;;;;;13.40;12.70;;;23.70;98.40;;;;;;2603142;54;20402;-61
2021/08/19 01:06:43;;;;;;;13.07;12.57;;;23.70;98.40;;;;;;2602776;51;20848;-60
2021/08/19 01:09:13;;;;;;;12.80;12.20;;;23.70;98.40;;;;;;2604207;54;20798;-60
2021/08/19 01:11:44;;;;;;;13.10;12.50;;;23.70;98.40;;;;;;2601621;54;20428;-61
2021/08/19 01:14:14;;;;;;;13.70;12.87;;;23.70;98.30;;;;;;2603542;39;20740;-60
2021/08/19 01:16:47;;;;;;;12.37;11.87;;;23.70;98.30;;;;;;2602633;39;20667;-60
2021/08/19 01:19:16;;;;;;;13.00;12.50;;;23.70;98.30;;;;;;2602986;31;20805;-61
2021/08/19 01:21:48;;;;;;;13.20;12.70;;;23.70;98.30;;;;;;2602249;54;20791;-60
2021/08/19 01:24:17;;;;;;;13.10;12.50;;;23.70;98.30;;;;;;2602930;54;20411;-61
2021/08/19 01:26:49;;;;;;;12.87;12.37;;;23.70;98.30;;;;;;2603183;54;20666;-60
2021/08/19 01:29:21;;;;;;;13.17;12.60;;;23.70;98.30;;;;;;2603970;54;20391;-60
2021/08/19 01:32:00;;;;;;;13.20;12.60;;;23.70;98.30;;;;;;2603401;54;20418;-61
2021/08/19 01:34:30;;;;;;;12.80;12.30;;;23.70;98.30;;;;;;2602660;39;20633;-61
2021/08/19 01:36:59;;;;;;;12.70;12.20;;;23.70;98.30;;;;;;2602246;39;20720;-61
2021/08/19 01:39:29;;;;;;;12.60;12.00;;;23.70;98.30;;;;;;2603477;39;21051;-60
2021/08/19 01:41:59;;;;;;;12.87;12.13;;;23.70;98.30;;;;;;2604304;39;20686;-61
2021/08/19 01:44:30;;;;;;;12.60;12.00;;;23.70;98.30;;;;;;2603590;54;20407;-61
2021/08/19 01:47:01;;;;;;;12.93;12.27;;;23.70;98.30;;;;;;2601995;54;21255;-60
2021/08/19 01:49:31;;;;;;;13.00;12.50;;;23.70;98.30;;;;;;2601764;54;20720;-61
2021/08/19 01:52:01;;;;;;;12.87;12.27;;;23.70;98.30;;;;;;2601653;47;20940;-61
2021/08/19 01:54:30;;;;;;;12.10;11.60;;;23.70;98.30;;;;;;2602651;54;20399;-61
2021/08/19 01:56:59;;;;;;;13.20;12.60;;;23.70;98.20;;;;;;2601321;39;21150;-60
2021/08/19 01:59:32;;;;;;;12.87;12.30;;;23.70;98.20;;;;;;2603519;54;20429;-60
2021/08/19 02:02:02;;;;;;;13.10;12.50;;;23.70;98.20;;;;;;2603454;54;20728;-61
2021/08/19 02:04:32;;;;;;;13.43;12.60;;;23.70;98.20;;;;;;2602264;54;20395;-60
2021/08/19 02:07:02;;;;;;;12.70;12.20;;;23.70;98.20;;;;;;2603563;54;20399;-60
2021/08/19 02:09:31;;;;;;;12.40;11.90;;;23.70;98.20;;;;;;2604835;54;20958;-61
2021/08/19 02:12:00;;;;;;;12.40;11.90;;;23.70;98.20;;;;;;2602166;54;20734;-61
2021/08/19 02:14:32;;;;;;;12.97;12.40;;;23.70;98.20;;;;;;2602950;54;20431;-61
2021/08/19 02:17:09;;;;;;;12.73;12.13;;;23.70;98.20;;;;;;2603807;54;20418;-61
2021/08/19 02:19:39;;;;;;;12.37;11.87;;;23.70;98.20;;;;;;2604619;39;20711;-61
2021/08/19 02:22:08;;;;;;;12.47;11.97;;;23.70;98.20;;;;;;2604452;39;20782;-61
2021/08/19 02:24:37;;;;;;;12.90;12.30;;;23.70;98.20;;;;;;2602921;54;20411;-60
2021/08/19 02:27:07;;;;;;;12.90;12.20;;;23.70;98.20;;;;;;2602540;54;20414;-60
2021/08/19 02:29:39;;;;;;;12.80;12.20;;;23.70;98.10;;;;;;2604094;39;20810;-61
2021/08/19 02:32:09;;;;;;;12.30;11.80;;;23.70;98.10;;;;;;2603940;54;20406;-60
2021/08/19 02:34:38;;;;;;;12.33;11.87;;;23.70;98.10;;;;;;2603965;54;20395;-61
2021/08/19 02:37:07;;;;;;;13.20;12.60;;;23.70;98.10;;;;;;2604149;54;21077;-61
2021/08/19 02:39:36;;;;;;;13.10;12.50;;;23.70;98.10;;;;;;2604360;54;20433;-60
2021/08/19 02:42:08;;;;;;;12.90;12.40;;;23.70;98.10;;;;;;2603704;54;20831;-61
2021/08/19 02:44:40;;;;;;;13.20;12.50;;;23.80;98.20;;;;;;2603396;54;20961;-61
2021/08/19 02:47:09;;;;;;;13.10;12.60;;;23.70;98.10;;;;;;2602877;47;20411;-61
2021/08/19 02:49:39;;;;;;;13.03;12.53;;;23.70;98.10;;;;;;2603610;39;20727;-61
2021/08/19 02:52:08;;;;;;;12.60;11.80;;;23.80;98.10;;;;;;2603490;54;20776;-61
2021/08/19 02:54:37;;;;;;;13.33;12.73;;;23.70;98.10;;;;;;2604046;54;20402;-60
2021/08/19 02:57:07;;;;;;;12.67;12.10;;;23.80;98.10;;;;;;2602465;54;21011;-60
2021/08/19 02:59:36;;;;;;;13.07;12.50;;;23.70;98.10;;;;;;2603043;54;20411;-60
2021/08/19 03:02:08;;;;;;;12.57;12.10;;;23.80;98.10;;;;;;2603397;54;20382;-61
2021/08/19 03:04:37;;;;;;;12.63;12.13;;;23.80;98.10;;;;;;2603431;54;20718;-60
2021/08/19 03:07:07;;;;;;;13.20;12.40;;;23.70;98.10;;;;;;2604446;54;20450;-59
2021/08/19 03:09:36;;;;;;;12.87;12.30;;;23.70;98.10;;;;;;2604771;54;20403;-61
2021/08/19 03:12:06;;;;;;;13.80;13.10;;;23.70;98.00;;;;;;2602148;54;21183;-61
2021/08/19 03:14:36;;;;;;;12.67;12.17;;;23.70;98.00;;;;;;2602289;54;20419;-61
2021/08/19 03:17:09;;;;;;;13.37;12.67;;;23.80;98.10;;;;;;2602316;54;20417;-61
2021/08/19 03:19:38;;;;;;;12.70;12.20;;;23.80;98.10;;;;;;2603505;54;20403;-61
2021/08/19 03:22:09;;;;;;;12.80;12.30;;;23.70;98.00;;;;;;2604129;54;20799;-60
2021/08/19 03:24:38;;;;;;;12.60;12.10;;;23.80;98.10;;;;;;2602680;54;20821;-60
2021/08/19 03:27:07;;;;;;;12.70;12.20;;;23.80;98.10;;;;;;2604069;39;20636;-60
2021/08/19 03:29:36;;;;;;;13.67;13.07;;;23.80;98.10;;;;;;2605217;54;20525;-61
2021/08/19 03:32:09;;;;;;;14.20;13.50;;;23.70;98.00;;;;;;2604227;54;20434;-61
2021/08/19 03:34:38;;;;;;;14.00;13.40;;;23.70;98.00;;;;;;2603643;54;20517;-61
2021/08/19 03:37:08;;;;;;;13.90;12.80;;;23.80;98.00;;;;;;2602748;54;20529;-61
2021/08/19 03:39:38;;;;;;;13.00;12.50;;;23.70;98.00;;;;;;2603498;54;20848;-60
2021/08/19 03:42:08;;;;;;;12.87;12.23;;;23.70;98.00;;;;;;2604011;47;20669;-60
2021/08/19 03:44:37;;;;;;;13.20;12.60;;;23.80;98.10;;;;;;2603149;54;20541;-61
2021/08/19 03:47:09;;;;;;;13.77;13.20;;;23.80;98.00;;;;;;2602404;54;20399;-61
2021/08/19 03:49:38;;;;;;;14.53;13.83;;;23.80;98.00;;;;;;2603344;54;20402;-59
2021/08/19 03:52:08;;;;;;;14.00;13.40;;;23.80;98.00;;;;;;2603663;54;21097;-61
2021/08/19 03:54:37;;;;;;;14.40;13.80;;;23.80;98.00;;;;;;2604082;54;20422;-61
2021/08/19 03:57:07;;;;;;;14.30;13.70;;;23.80;98.00;;;;;;2602440;39;20734;-60
2021/08/19 03:59:36;;;;;;;13.50;13.00;;;23.70;98.00;;;;;;2602260;54;20430;-60
2021/08/19 04:02:08;;;;;;;14.17;13.57;;;23.70;97.90;;;;;;2601964;54;20494;-61
2021/08/19 04:04:37;;;;;;;13.90;13.20;;;23.80;98.00;;;;;;2602544;54;20414;-61
2021/08/19 04:07:06;;;;;;;14.30;13.70;;;23.80;98.00;;;;;;2601402;54;20402;-60
2021/08/19 04:09:36;;;;;;;14.27;13.50;;;23.80;98.00;;;;;;2601392;54;20395;-60
2021/08/19 04:12:05;;;;;;;14.23;13.63;;;23.80;98.00;;;;;;2600870;54;20922;-60
2021/08/19 04:14:35;;;;;;;13.80;13.30;;;23.70;97.90;;;;;;2599166;54;20422;-60
2021/08/19 04:17:04;;;;;;;14.50;13.80;;;23.80;97.90;;;;;;2599914;54;20944;-60
2021/08/19 04:19:39;;;;;;;14.20;13.60;;;23.80;98.00;;;;;;2598831;54;20395;-61
2021/08/19 04:22:09;;;;;;;14.23;13.70;;;23.80;97.90;;;;;;2599140;54;20389;-60
2021/08/19 04:24:38;;;;;;;15.30;14.60;;;23.80;98.20;;;;;;2599012;39;20800;-61
2021/08/19 04:27:08;;;;;;;14.90;14.30;;;23.80;98.00;;;;;;2598794;51;20442;-60
2021/08/19 04:29:37;;;;;;;14.60;14.00;;;23.80;97.90;;;;;;2596698;39;20712;-61
2021/08/19 04:32:07;;;;;;;14.90;14.20;;;23.80;97.90;;;;;;2598288;39;20609;-61
2021/08/19 04:34:40;;;;;;;14.17;13.57;;;23.80;97.90;;;;;;2597749;54;21141;-61
2021/08/19 04:37:09;;;;;;;14.33;13.73;;;23.80;98.00;;;;;;2597090;39;20870;-61
2021/08/19 04:39:38;;;;;;;14.60;14.07;;;23.80;97.90;;;;;;2597859;54;20884;-60
2021/08/19 04:42:08;;;;;;;14.43;13.73;;;23.80;97.90;;;;;;2597130;39;20729;-61
2021/08/19 04:44:37;;;;;;;13.80;13.20;;;23.80;97.90;;;;;;2596918;54;21183;-60
2021/08/19 04:47:06;;;;;;;14.07;13.37;;;23.70;97.90;;;;;;2595287;51;20394;-61
2021/08/19 04:49:38;;;;;;;14.50;13.63;;;23.80;97.90;;;;;;2594611;54;20387;-59
2021/08/19 04:52:08;;;;;;;13.43;12.93;;;23.80;97.90;;;;;;2592893;54;20524;-61
2021/08/19 04:54:37;;;;;;;14.63;14.00;;;23.80;97.90;;;;;;2590799;54;20872;-60
2021/08/19 04:57:07;;;;;;;13.63;13.03;;;23.80;97.90;;;;;;2594367;54;20809;-60
2021/08/19 04:59:36;;;;;;;13.67;13.17;;;23.80;97.90;;;;;;2592479;54;20398;-61
2021/08/19 05:02:05;;;;;;;13.67;12.97;;;23.80;97.90;;;;;;2591651;39;20594;-60
2021/08/19 05:04:35;;;;;;;13.03;12.43;;;23.80;97.90;;;;;;2590300;54;20758;-61
2021/08/19 05:07:06;;;;;;;13.80;13.23;;;23.80;97.90;;;;;;2589599;39;20612;-61
2021/08/19 05:09:35;;;;;;;13.83;13.30;;;23.80;97.80;;;;;;2588329;54;20391;-61
2021/08/19 05:12:05;;;;;;;13.60;13.10;;;23.80;97.80;;;;;;2589562;39;20691;-60
2021/08/19 05:14:34;;;;;;;13.40;12.90;;;23.80;97.90;;;;;;2588725;54;20810;-61
2021/08/19 05:17:04;;;;;;;13.20;12.70;;;23.80;97.80;;;;;;2586344;39;20504;-60
2021/08/19 05:19:33;;;;;;;13.70;13.10;;;23.80;97.90;;;;;;2583894;54;20761;-61
2021/08/19 05:22:02;;;;;;;12.50;12.10;;;23.80;97.80;;;;;;2584971;54;20378;-61
2021/08/19 05:24:34;;;;;;;12.90;12.40;;;23.80;97.80;;;;;;2585966;54;20386;-61
2021/08/19 05:27:03;;;;;;;13.37;12.70;;;23.80;97.80;;;;;;2584199;54;20395;-61
2021/08/19 05:29:32;;;;;;;13.53;12.83;;;23.80;97.80;;;;;;2574626;54;20414;-61
2021/08/19 05:32:01;;;;;;;13.70;13.17;;;23.80;97.80;;;;;;2575481;39;20540;-61
2021/08/19 05:34:31;;;;;;;13.57;13.03;;;23.80;97.80;;;;;;2575947;47;20398;-60
2021/08/19 05:37:00;;;;;;;12.70;12.10;;;23.70;97.80;;;;;;2578042;47;20414;-61
2021/08/19 05:39:30;;;;;;;13.50;13.00;;;23.80;97.80;;;;;;2577402;54;20892;-61
2021/08/19 05:42:02;;;;;;;13.40;12.90;;;23.80;97.80;;;;;;2576829;54;20850;-60
2021/08/19 05:44:32;;;;;;;13.33;12.83;;;23.80;97.80;;;;;;2579370;39;20764;-61
2021/08/19 05:47:01;;;;;;;14.43;13.80;;;23.80;97.80;;;;;;2577226;54;20398;-61
2021/08/19 05:49:30;;;;;;;13.03;12.43;;;23.80;97.80;;;;;;2579161;54;20403;-61
2021/08/19 05:51:59;;;;;;;13.50;12.80;;;23.80;97.80;;;;;;2578397;54;20399;-61
2021/08/19 05:54:28;;;;;;;13.83;13.23;;;23.80;97.80;;;;;;2578734;39;20777;-60
2021/08/19 05:56:57;;;;;;;13.97;13.43;;;23.80;97.80;;;;;;2571493;39;20621;-61
2021/08/19 05:59:29;;;;;;;14.43;13.83;;;23.80;97.80;;;;;;2576428;54;20469;-61
2021/08/19 06:01:58;;;;;;;14.67;14.07;;;23.80;97.80;;;;;;2574658;54;20951;-60
2021/08/19 06:04:27;;;;;;;14.77;14.17;;;23.80;97.80;;;;;;2574441;54;20470;-61
2021/08/19 06:06:56;;;;;;;13.77;13.27;;;23.80;97.80;;;;;;2575564;54;20386;-61
2021/08/19 06:09:25;;;;;;;14.50;13.70;;;23.80;97.80;;;;;;2573709;39;20670;-61
2021/08/19 06:11:55;;;;;;;13.80;13.10;;;23.80;97.80;;;;;;2572949;39;20727;-60
2021/08/19 06:14:24;;;;;;;13.90;13.40;;;23.80;97.80;;;;;;2577812;39;20735;-59
2021/08/19 06:16:55;;;;;;;14.10;13.50;;;23.80;97.80;;;;;;2576347;54;20429;-60
2021/08/19 06:19:25;;;;;;;15.63;14.57;;;23.80;97.80;;;;;;2575068;39;20642;-61
2021/08/19 06:21:59;;;;;;;16.60;15.60;;;23.80;97.90;;;;;;2573983;39;20601;-61
2021/08/19 06:24:28;;;;;;;17.13;15.63;;;23.80;97.90;;;;;;2570731;54;20440;-60
2021/08/19 06:26:57;;;;;;;15.73;14.93;;;23.80;97.90;;;;;;2572415;39;20737;-61
2021/08/19 06:29:26;;;;;;;15.83;14.63;;;23.80;98.00;;;;;;2570397;39;20583;-61
2021/08/19 06:32:02;;;;;;;16.57;15.30;;;23.70;98.00;;;;;;2574906;54;20411;-61
2021/08/19 06:34:34;;;;;;;15.60;14.50;;;23.80;98.00;;;;;;2570910;39;20580;-61
2021/08/19 06:37:03;;;;;;;15.77;14.60;;;23.80;98.00;;;;;;2575015;54;20828;-61
2021/08/19 06:39:33;;;;;;;16.20;15.20;;;23.80;98.00;;;;;;2569645;54;21463;-61
2021/08/19 06:42:02;;;;;;;15.43;14.73;;;23.80;98.40;;;;;;2573346;54;21190;-61
2021/08/19 06:44:31;;;;;;;15.70;14.80;;;23.80;98.10;;;;;;2570829;39;20616;-61
2021/08/19 06:47:03;;;;;;;16.20;15.33;;;23.80;98.10;;;;;;2571194;54;20398;-61
2021/08/19 06:49:32;;;;;;;16.33;15.10;;;23.80;98.20;;;;;;2570264;54;20389;-61
2021/08/19 06:52:01;;;;;;;16.70;15.60;;;23.80;98.20;;;;;;2577590;39;21088;-63
2021/08/19 06:54:30;;;;;;;15.47;14.67;;;23.80;98.20;;;;;;2575290;54;20907;-61
2021/08/19 06:57:01;;;;;;;15.43;14.70;;;23.80;98.20;;;;;;2573570;54;20387;-61
2021/08/19 06:59:30;;;;;;;15.63;14.53;;;23.80;98.30;;;;;;2568285;54;20434;-61
2021/08/19 07:01:59;;;;;;;15.60;14.57;;;23.80;98.30;;;;;;2569762;54;20760;-61
2021/08/19 07:04:31;;;;;;;14.90;14.00;;;23.80;98.30;;;;;;2571377;54;20982;-61
2021/08/19 07:07:00;;;;;;;15.70;14.80;;;23.80;98.30;;;;;;2565076;54;20860;-61
2021/08/19 07:09:30;;;;;;;14.90;14.00;;;23.80;98.30;;;;;;2570089;39;20645;-61
2021/08/19 07:11:59;;;;;;;14.63;13.40;;;23.80;98.30;;;;;;2573993;54;20970;-60
2021/08/19 07:14:28;;;;;;;14.73;13.73;;;23.80;98.40;;;;;;2566655;54;20745;-61
2021/08/19 07:16:57;;;;;;;14.50;13.90;;;23.80;98.40;;;;;;2563382;54;20387;-61
2021/08/19 07:19:26;;;;;;;14.80;13.80;;;23.80;98.40;;;;;;2565761;54;20472;-61
2021/08/19 07:21:58;;;;;;;14.80;14.10;;;23.80;98.40;;;;;;2571195;54;20418;-60
2021/08/19 07:24:27;;;;;;;16.07;14.67;;;23.80;98.40;;;;;;2569552;54;20649;-61
2021/08/19 07:26:56;;;;;;;14.73;13.83;;;23.80;98.40;;;;;;2565689;54;20859;-61
2021/08/19 07:29:25;;;;;;;14.13;13.43;;;23.80;98.70;;;;;;2569216;51;21380;-59
2021/08/19 07:31:54;;;;;;;14.33;13.53;;;23.80;98.40;;;;;;2562549;54;20767;-60
2021/08/19 07:34:23;;;;;;;15.70;14.80;;;23.80;98.40;;;;;;2570190;54;20761;-62
2021/08/19 07:36:53;;;;;;;15.43;14.70;;;23.80;98.40;;;;;;2569556;54;21002;-61
2021/08/19 07:39:24;;;;;;;14.53;13.70;;;23.80;98.40;;;;;;2560868;54;21189;-60
2021/08/19 07:41:53;;;;;;;14.23;13.60;;;23.80;98.40;;;;;;2566186;39;20608;-60
2021/08/19 07:44:23;;;;;;;14.97;13.83;;;23.80;98.40;;;;;;2567607;54;21058;-61
2021/08/19 07:46:52;;;;;;;15.13;14.40;;;23.80;98.50;;;;;;2562559;39;20637;-61
2021/08/19 07:49:22;;;;;;;15.30;14.70;;;23.80;98.40;;;;;;2570820;54;20399;-61
2021/08/19 07:51:51;;;;;;;14.83;14.03;;;23.80;98.50;;;;;;2567197;54;20889;-61
2021/08/19 07:54:20;;;;;;;14.47;13.87;;;23.80;98.40;;;;;;2564885;54;20688;-61
2021/08/19 07:56:52;;;;;;;15.10;14.40;;;23.80;98.40;;;;;;2569243;47;20835;-62
2021/08/19 07:59:21;;;;;;;15.17;14.47;;;23.80;98.50;;;;;;2568889;54;20439;-62
2021/08/19 08:01:51;;;;;;;14.47;13.80;;;23.80;98.50;;;;;;2569521;54;20810;-62
2021/08/19 08:04:20;;;;;;;14.20;13.60;;;23.80;98.40;;;;;;2571349;54;20414;-62
2021/08/19 08:06:50;;;;;;;13.70;13.10;;;23.80;98.40;;;;;;2572230;39;20778;-62
2021/08/19 08:09:19;;;;;;;14.03;13.30;;;23.80;98.40;;;;;;2571374;47;20391;-62
2021/08/19 08:11:48;;;;;;;13.53;12.70;;;23.80;98.40;;;;;;2569673;54;20915;-62
2021/08/19 08:14:19;;;;;;;14.30;13.53;;;23.80;98.40;;;;;;2569387;54;20725;-62
2021/08/19 08:16:49;;;;;;;13.50;12.80;;;23.80;98.40;;;;;;2566312;54;20909;-62
2021/08/19 08:19:18;;;;;;;13.00;12.50;;;23.80;98.40;;;;;;2564751;39;21085;-62
2021/08/19 08:21:48;;;;;;;14.43;13.60;;;23.80;98.40;;;;;;2572044;39;21066;-62
2021/08/19 08:24:21;;;;;;;14.00;13.30;;;23.80;98.40;;;;;;2565976;47;20960;-63
2021/08/19 08:26:51;;;;;;;14.50;13.80;;;23.80;98.40;;;;;;2564243;39;20688;-62
2021/08/19 08:29:24;;;;;;;13.00;12.50;;;23.80;98.40;;;;;;2567588;54;20824;-62
2021/08/19 08:31:54;;;;;;;14.30;13.50;;;23.80;98.40;;;;;;2567988;39;21063;-62
2021/08/19 08:34:25;;;;;;;13.67;13.07;;;23.80;98.40;;;;;;2565873;54;20814;-62
2021/08/19 08:36:54;;;;;;;13.70;13.10;;;23.80;98.30;;;;;;2565996;39;20795;-61
2021/08/19 08:39:25;;;;;;;14.20;13.63;;;23.80;98.30;;;;;;2571166;54;20690;-62
2021/08/19 08:41:54;;;;;;;14.03;13.30;;;23.80;98.30;;;;;;2567279;54;20878;-62
2021/08/19 08:44:28;;;;;;;13.33;12.73;;;23.80;98.30;;;;;;2570660;39;20817;-62
2021/08/19 08:46:58;;;;;;;14.60;13.77;;;23.80;98.30;;;;;;2567338;39;20621;-62
2021/08/19 08:49:27;;;;;;;14.43;13.73;;;23.80;98.30;;;;;;2561823;54;20899;-62
2021/08/19 08:51:58;;;;;;;14.33;13.73;;;23.80;98.30;;;;;;2564243;47;21229;-62
2021/08/19 08:54:31;;;;;;;14.17;13.53;;;23.80;98.30;;;;;;2569340;54;20983;-62
2021/08/19 08:57:02;;;;;;;13.77;13.27;;;23.80;98.30;;;;;;2570212;54;20871;-61
2021/08/19 08:59:34;;;;;;;14.73;14.13;;;23.80;98.30;;;;;;2568554;54;20928;-61
2021/08/19 09:02:04;;;;;;;14.13;13.53;;;23.80;98.30;;;;;;2566323;47;20860;-62
2021/08/19 09:04:33;;;;;;;13.03;12.60;;;23.80;98.30;;;;;;2566882;47;20500;-62
2021/08/19 09:07:06;;;;;;;14.70;14.00;;;23.80;98.30;;;;;;2567802;54;20398;-62
2021/08/19 09:09:36;;;;;;;14.20;13.60;;;23.80;98.30;;;;;;2561798;54;21083;-61
2021/08/19 09:12:09;;;;;;;14.60;13.90;;;23.80;98.20;;;;;;2567677;39;20623;-61
2021/08/19 09:14:42;;;;;;;13.97;13.47;;;23.80;98.20;;;;;;2562744;47;20802;-62
2021/08/19 09:17:12;;;;;;;15.07;14.27;;;23.80;98.20;;;;;;2564113;39;20723;-60
2021/08/19 09:19:41;;;;;;;14.50;13.80;;;23.80;98.20;;;;;;2568628;54;20407;-61
2021/08/19 09:22:13;;;;;;;13.10;12.60;;;23.80;98.20;;;;;;2564080;54;20889;-61
2021/08/19 09:24:42;;;;;;;13.47;12.87;;;23.80;98.20;;;;;;2561427;46;20406;-61
2021/08/19 09:27:13;;;;;;;13.57;12.97;;;23.80;98.20;;;;;;2568362;39;20795;-61
2021/08/19 09:29:47;;;;;;;14.00;13.40;;;23.80;98.20;;;;;;2564981;54;21053;-61
2021/08/19 09:32:18;;;;;;;13.93;13.43;;;23.80;98.20;;;;;;2570098;54;21310;-61
2021/08/19 09:34:49;;;;;;;13.40;12.80;;;23.80;98.20;;;;;;2567094;39;20721;-61
2021/08/19 09:37:21;;;;;;;14.60;14.00;;;23.80;98.10;;;;;;2564055;54;20418;-60
2021/08/19 09:39:59;;;;;;;13.50;13.00;;;23.80;98.10;;;;;;2569781;39;20670;-61
2021/08/19 09:42:38;;;;;;;12.53;12.10;;;23.80;98.10;;;;;;2571465;39;20655;-60
2021/08/19 09:45:25;;;;;;;12.63;12.07;;;23.90;98.20;;;;;;2570943;54;20429;-60
2021/08/19 09:47:56;;;;;;;14.50;13.43;;;23.90;98.20;;;;;;2570805;54;20417;-60
2021/08/19 09:50:26;;;;;;;14.10;13.50;;;23.90;98.10;;;;;;2569953;54;20743;-61
2021/08/19 09:52:56;;;;;;;13.50;12.80;;;23.90;98.10;;;;;;2567346;54;21153;-62
2021/08/19 09:55:27;;;;;;;13.50;13.00;;;23.90;98.10;;;;;;2571407;54;20382;-61
2021/08/19 09:57:57;;;;;;;13.33;12.83;;;23.90;98.10;;;;;;2571526;54;20971;-62
2021/08/19 10:00:32;;;;;;;13.83;13.23;;;23.90;98.10;;;;;;2566164;54;21336;-62
2021/08/19 10:03:18;;;;;;;13.50;12.90;;;23.90;98.10;;;;;;2566524;54;20669;-62
2021/08/19 10:05:47;;;;;;;13.87;12.83;;;23.90;98.10;;;;;;2564992;54;20743;-62
2021/08/19 10:08:17;;;;;;;13.80;13.20;;;23.90;98.00;;;;;;2569591;39;20721;-62
2021/08/19 10:10:46;;;;;;;14.20;13.60;;;23.90;98.00;;;;;;2569620;54;20805;-62
2021/08/19 10:13:16;;;;;;;13.47;12.97;;;23.90;98.30;;;;;;2564222;54;20830;-61
2021/08/19 10:15:52;;;;;;;12.17;11.77;;;23.90;98.00;;;;;;2571150;54;20421;-62
2021/08/19 10:18:26;;;;;;;12.70;12.20;;;23.90;98.00;;;;;;2564060;54;20759;-63
2021/08/19 10:21:11;;;;;;;12.70;11.90;;;23.90;98.00;;;;;;2569204;54;20793;-62
2021/08/19 10:23:43;;;;;;;13.20;12.50;;;23.90;98.00;;;;;;2573039;39;20728;-62
2021/08/19 10:26:14;;;;;;;12.87;12.37;;;23.90;97.90;;;;;;2569123;39;20531;-62
2021/08/19 10:28:52;;;;;;;13.00;12.50;;;23.90;97.90;;;;;;2572423;54;20792;-62
2021/08/19 10:31:46;;;;;;;12.70;12.10;;;23.90;97.90;;;;;;2570761;39;20788;-62
2021/08/19 10:34:16;;;;;;;12.80;12.30;;;23.90;97.90;;;;;;2566017;54;20402;-62
2021/08/19 10:36:59;;;;;;;11.73;11.33;;;23.90;97.90;;;;;;2568478;39;20779;-62
2021/08/19 10:39:41;;;;;;;12.40;11.90;;;23.90;97.90;;;;;;2564666;54;21073;-62
2021/08/19 10:42:12;;;;;;;13.30;12.70;;;23.90;97.90;;;;;;2568065;39;20588;-61
2021/08/19 10:44:49;;;;;;;12.53;12.03;;;23.90;97.90;;;;;;2571078;54;20936;-61
2021/08/19 10:47:43;;;;;;;12.63;12.13;;;23.90;97.90;;;;;;2574153;54;20410;-62
2021/08/19 10:50:31;;;;;;;13.00;12.40;;;23.90;97.90;;;;;;2578623;54;21280;-61
2021/08/19 10:53:12;;;;;;;12.63;12.13;;;23.80;96.90;;;;;;2569771;47;20391;-61
2021/08/19 10:55:43;;;;;;;12.60;12.03;;;23.60;96.70;;;;;;2571201;54;20903;-62
2021/08/19 10:58:29;;;;;;;12.43;12.03;;;23.50;97.20;;;;;;2573648;54;20423;-63
2021/08/19 11:01:00;;;;;;;12.67;12.17;;;23.60;97.40;;;;;;2567482;54;20433;-62
2021/08/19 11:03:48;;;;;;;13.70;13.10;;;23.60;97.40;;;;;;2564521;54;21276;-62
2021/08/19 11:06:22;;;;;;;12.60;12.10;;;23.70;97.50;;;;;;2567317;39;21127;-62
2021/08/19 11:08:54;;;;;;;13.10;12.40;;;23.70;97.40;;;;;;2572600;47;20460;-62
2021/08/19 11:11:36;;;;;;;13.40;12.67;;;23.80;97.50;;;;;;2570140;54;20410;-62
2021/08/19 11:14:12;;;;;;;13.13;12.63;;;23.80;97.50;;;;;;2578386;54;20429;-62
2021/08/19 11:16:43;;;;;;;13.40;12.80;;;23.80;97.50;;;;;;2577305;54;20421;-62
2021/08/19 11:19:18;;;;;;;12.53;12.03;;;23.80;97.50;;;;;;2578122;54;20380;-62
2021/08/19 11:21:53;;;;;;;13.30;12.60;;;23.80;97.50;;;;;;2581170;54;20425;-61
2021/08/19 11:24:22;;;;;;;13.00;12.50;;;23.80;97.40;;;;;;2577217;54;20402;-62
2021/08/19 11:27:03;;;;;;;13.47;12.93;;;23.80;97.40;;;;;;2570978;39;20634;-62
2021/08/19 11:29:35;;;;;;;12.70;12.20;;;23.80;97.50;;;;;;2569330;54;20909;-62
2021/08/19 11:32:06;;;;;;;12.93;12.33;;;23.80;97.50;;;;;;2569467;54;20439;-62
2021/08/19 11:34:39;;;;;;;12.17;11.77;;;23.80;97.80;;;;;;2573937;54;20561;-62
2021/08/19 11:37:09;;;;;;;13.03;12.43;;;23.90;97.50;;;;;;2576760;54;20442;-62
2021/08/19 11:39:38;;;;;;;13.57;12.87;;;23.90;97.50;;;;;;2574744;47;20430;-62
2021/08/19 11:42:10;;;;;;;13.60;13.00;;;23.90;97.60;;;;;;2573606;54;20403;-62
2021/08/19 11:44:40;;;;;;;13.03;12.43;;;23.90;97.50;;;;;;2574388;54;20549;-62
2021/08/19 11:47:12;;;;;;;13.13;12.57;;;23.90;97.50;;;;;;2575079;47;20403;-62
2021/08/19 11:49:44;;;;;;;13.07;12.37;;;23.90;97.50;;;;;;2572567;54;20403;-62
2021/08/19 11:52:13;;;;;;;12.57;12.07;;;23.90;97.50;;;;;;2573952;54;20415;-62
2021/08/19 11:54:46;;;;;;;12.80;12.10;;;23.90;97.50;;;;;;2574279;54;21113;-61
2021/08/19 11:57:25;;;;;;;12.83;12.33;;;23.90;97.50;;;;;;2570861;39;20765;-61
2021/08/19 12:00:02;;;;;;;12.90;12.30;;;23.90;97.50;;;;;;2575132;54;20430;-63
2021/08/19 12:02:41;;;;;;;13.23;12.73;;;23.90;97.50;;;;;;2572094;39;20743;-62
2021/08/19 12:05:14;;;;;;;13.40;12.70;;;23.90;97.50;;;;;;2573112;54;20411;-63
2021/08/19 12:07:45;;;;;;;14.30;13.60;;;23.90;97.90;;;;;;2570024;54;20449;-62
2021/08/19 12:10:15;;;;;;;13.40;12.80;;;23.90;97.60;;;;;;2574477;39;20700;-63
2021/08/19 12:12:47;;;;;;;13.00;12.50;;;23.90;97.60;;;;;;2575040;54;20413;-62
2021/08/19 12:15:17;;;;;;;13.30;12.80;;;23.90;97.50;;;;;;2571698;54;20569;-62
2021/08/19 12:18:07;;;;;;;13.90;13.40;;;23.90;97.50;;;;;;2574172;54;20437;-62
2021/08/19 12:20:39;;;;;;;13.23;12.63;;;23.90;97.60;;;;;;2575261;54;20383;-62
2021/08/19 12:23:21;;;;;;;13.30;12.80;;;23.90;97.50;;;;;;2571244;54;20390;-62
2021/08/19 12:25:50;;;;;;;13.67;13.10;;;23.90;97.50;;;;;;2569744;54;20407;-62
2021/08/19 12:28:19;;;;;;;13.60;13.00;;;23.90;97.50;;;;;;2570020;54;20421;-63
2021/08/19 12:30:59;;;;;;;13.60;12.87;;;23.90;97.50;;;;;;2573163;54;20449;-62
2021/08/19 12:33:34;;;;;;;13.10;12.50;;;23.90;97.50;;;;;;2574136;54;20509;-62
2021/08/19 12:36:21;;;;;;;12.93;12.33;;;23.90;97.50;;;;;;2571663;39;20814;-62
2021/08/19 12:38:53;;;;;;;12.97;12.47;;;23.90;97.60;;;;;;2572700;39;20786;-62
2021/08/19 12:41:23;;;;;;;13.30;12.80;;;23.90;97.50;;;;;;2571591;47;20452;-63
2021/08/19 12:44:08;;;;;;;12.53;12.03;;;23.90;97.60;;;;;;2573975;39;20826;-62
2021/08/19 12:46:39;;;;;;;12.10;11.60;;;23.90;97.60;;;;;;2574964;54;20510;-62
2021/08/19 12:49:28;;;;;;;12.70;12.10;;;23.90;97.50;;;;;;2574237;54;20433;-62